Дата Время Давление Темп. Влажн. Скор.ветра Напр.ветра Макс.ветер Осадки/час Осадки
16.09.21 14:00 748.3 10.1 72.7 0.8 251 3.3 0 0
16.09.21 13:00 748.4 10 73.5 1.1 336 3.7 0 0
16.09.21 12:00 748.3 9 79.5 1.8 9 4.5 0 0
16.09.21 11:00 748.2 8.1 84.5 1.3 42 3.8 0 0
16.09.21 10:00 748 7.8 83.8 1.2 330 4.1 0 0
16.09.21 09:00 747.7 7.1 83.4 1.8 360 4.8 0 0
16.09.21 08:00 747.8 6.7 80.7 1.3 3 3.1 0 0
16.09.21 07:00 747.6 5.9 81.6 1.5 39 4.1 0 0
16.09.21 06:00 747.2 5.9 81.2 1.7 347 4.1 0 0
16.09.21 05:00 746.9 6 82.3 1.5 352 4.2 0 0
16.09.21 04:00 746.5 5.9 86.6 1.6 359 3.4 0 0
16.09.21 03:00 746.1 6 84.6 1.5 359 4.1 0 0
16.09.21 02:00 745.9 6.1 82.8 2 351 4.4 0 0
16.09.21 01:00 745.8 6.8 78.7 1.6 352 5 0 0
16.09.21 00:00 745.5 7.9 76.7 1.5 13 4 0 0
15.09.21 23:00 745.3 8.5 72.9 1.3 344 3.3 0 0
15.09.21 22:00 745 9.3 69.3 1.2 239 3.6 0 0
15.09.21 21:00 745.1 9.6 67.8 1.4 266 3.9 0 0
15.09.21 20:00 745 10.4 63.6 0.8 256 3 0 0
15.09.21 19:00 744.9 11.1 58.3 1.1 9 3.9 0 0
15.09.21 18:00 744.7 12.4 52 1.6 360 5.7 0 0
15.09.21 17:00 744.3 14.3 46.5 0.9 286 6.2 0 0
15.09.21 16:00 743.3 16.1 41 0.9 30 7.1 0 0
15.09.21 15:00 743.7 15.3 45.5 1 329 6.5 0 0